sensor_id;sensor_type;location;lat;lon;timestamp;temperature;humidity
38860;DHT22;24609;48.316;16.174;2023-08-21T00:01:21;19.70;99.90
38860;DHT22;24609;48.316;16.174;2023-08-21T00:03:46;19.70;99.90
38860;DHT22;24609;48.316;16.174;2023-08-21T00:06:12;19.70;99.90
38860;DHT22;24609;48.316;16.174;2023-08-21T00:08:38;19.70;99.90
38860;DHT22;24609;48.316;16.174;2023-08-21T00:11:03;19.70;99.90
38860;DHT22;24609;48.316;16.174;2023-08-21T00:13:29;19.80;99.90
38860;DHT22;24609;48.316;16.174;2023-08-21T00:15:55;19.60;99.90
38860;DHT22;24609;48.316;16.174;2023-08-21T00:18:21;19.60;99.90
38860;DHT22;24609;48.316;16.174;2023-08-21T00:20:47;19.50;99.90
38860;DHT22;24609;48.316;16.174;2023-08-21T00:23:12;19.50;99.90
38860;DHT22;24609;48.316;16.174;2023-08-21T00:25:38;19.40;99.90
38860;DHT22;24609;48.316;16.174;2023-08-21T00:28:04;19.30;99.90
38860;DHT22;24609;48.316;16.174;2023-08-21T00:30:30;19.30;99.90
38860;DHT22;24609;48.316;16.174;2023-08-21T00:32:55;19.30;99.90
38860;DHT22;24609;48.316;16.174;2023-08-21T00:35:21;19.30;99.90
38860;DHT22;24609;48.316;16.174;2023-08-21T00:37:47;19.40;99.90
38860;DHT22;24609;48.316;16.174;2023-08-21T00:40:12;19.40;99.90
38860;DHT22;24609;48.316;16.174;2023-08-21T00:42:39;19.30;99.90
38860;DHT22;24609;48.316;16.174;2023-08-21T00:45:05;19.20;99.90
38860;DHT22;24609;48.316;16.174;2023-08-21T00:47:34;19.20;99.90
38860;DHT22;24609;48.316;16.174;2023-08-21T00:50:00;19.10;99.90
38860;DHT22;24609;48.316;16.174;2023-08-21T00:52:26;19.00;99.90
38860;DHT22;24609;48.316;16.174;2023-08-21T00:54:52;19.00;99.90
38860;DHT22;24609;48.316;16.174;2023-08-21T00:57:19;19.00;99.90
38860;DHT22;24609;48.316;16.174;2023-08-21T00:59:45;19.00;99.90
38860;DHT22;24609;48.316;16.174;2023-08-21T01:02:12;19.00;99.90
38860;DHT22;24609;48.316;16.174;2023-08-21T01:04:37;19.00;99.90
38860;DHT22;24609;48.316;16.174;2023-08-21T01:07:03;19.00;99.90
38860;DHT22;24609;48.316;16.174;2023-08-21T01:12:50;19.00;99.90
38860;DHT22;24609;48.316;16.174;2023-08-21T01:15:18;19.00;99.90
38860;DHT22;24609;48.316;16.174;2023-08-21T01:17:46;19.00;99.90
38860;DHT22;24609;48.316;16.174;2023-08-21T01:20:13;19.00;99.90
38860;DHT22;24609;48.316;16.174;2023-08-21T01:22:41;19.00;99.90
38860;DHT22;24609;48.316;16.174;2023-08-21T01:25:11;19.00;99.90
38860;DHT22;24609;48.316;16.174;2023-08-21T01:27:38;19.00;99.90
38860;DHT22;24609;48.316;16.174;2023-08-21T01:30:04;19.00;99.90
38860;DHT22;24609;48.316;16.174;2023-08-21T01:35:20;18.90;99.90
38860;DHT22;24609;48.316;16.174;2023-08-21T01:37:46;18.90;99.90
38860;DHT22;24609;48.316;16.174;2023-08-21T01:40:12;18.70;99.90
38860;DHT22;24609;48.316;16.174;2023-08-21T01:42:44;18.60;99.90
38860;DHT22;24609;48.316;16.174;2023-08-21T01:45:10;18.40;99.90
38860;DHT22;24609;48.316;16.174;2023-08-21T01:47:36;18.50;99.90
38860;DHT22;24609;48.316;16.174;2023-08-21T01:50:01;18.40;99.90
38860;DHT22;24609;48.316;16.174;2023-08-21T01:52:27;18.40;99.90
38860;DHT22;24609;48.316;16.174;2023-08-21T01:54:53;18.40;99.90
38860;DHT22;24609;48.316;16.174;2023-08-21T01:57:19;18.50;99.90
38860;DHT22;24609;48.316;16.174;2023-08-21T01:59:44;18.50;99.90
38860;DHT22;24609;48.316;16.174;2023-08-21T02:02:10;18.50;99.90
38860;DHT22;24609;48.316;16.174;2023-08-21T02:04:35;18.50;99.90
38860;DHT22;24609;48.316;16.174;2023-08-21T02:07:01;18.50;99.90
38860;DHT22;24609;48.316;16.174;2023-08-21T02:09:27;18.50;99.90
38860;DHT22;24609;48.316;16.174;2023-08-21T02:11:52;18.40;99.90
38860;DHT22;24609;48.316;16.174;2023-08-21T02:14:18;18.40;99.90
38860;DHT22;24609;48.316;16.174;2023-08-21T02:16:44;18.40;99.90
38860;DHT22;24609;48.316;16.174;2023-08-21T02:19:09;18.40;99.90
38860;DHT22;24609;48.316;16.174;2023-08-21T02:21:35;18.30;99.90
38860;DHT22;24609;48.316;16.174;2023-08-21T02:24:02;18.20;99.90
38860;DHT22;24609;48.316;16.174;2023-08-21T02:26:27;18.10;99.90
38860;DHT22;24609;48.316;16.174;2023-08-21T02:28:53;18.00;99.90
38860;DHT22;24609;48.316;16.174;2023-08-21T02:31:19;17.90;99.90
38860;DHT22;24609;48.316;16.174;2023-08-21T02:33:44;17.90;99.90
38860;DHT22;24609;48.316;16.174;2023-08-21T02:36:10;18.00;99.90
38860;DHT22;24609;48.316;16.174;2023-08-21T02:38:36;18.00;99.90
38860;DHT22;24609;48.316;16.174;2023-08-21T02:41:01;18.00;99.90
38860;DHT22;24609;48.316;16.174;2023-08-21T02:43:27;18.10;99.90
38860;DHT22;24609;48.316;16.174;2023-08-21T02:45:53;18.10;99.90
38860;DHT22;24609;48.316;16.174;2023-08-21T02:48:18;18.10;99.90
38860;DHT22;24609;48.316;16.174;2023-08-21T02:50:44;18.10;99.90
38860;DHT22;24609;48.316;16.174;2023-08-21T02:53:10;18.10;99.90
38860;DHT22;24609;48.316;16.174;2023-08-21T02:55:35;18.20;99.90
38860;DHT22;24609;48.316;16.174;2023-08-21T02:58:01;18.20;99.90
38860;DHT22;24609;48.316;16.174;2023-08-21T03:00:27;18.30;99.90
38860;DHT22;24609;48.316;16.174;2023-08-21T03:02:52;18.30;99.90
38860;DHT22;24609;48.316;16.174;2023-08-21T03:05:18;18.40;99.90
38860;DHT22;24609;48.316;16.174;2023-08-21T03:07:44;18.30;99.90
38860;DHT22;24609;48.316;16.174;2023-08-21T03:10:09;18.30;99.90
38860;DHT22;24609;48.316;16.174;2023-08-21T03:12:35;18.20;99.90
38860;DHT22;24609;48.316;16.174;2023-08-21T03:15:01;18.30;99.90
38860;DHT22;24609;48.316;16.174;2023-08-21T03:17:27;18.20;99.90
38860;DHT22;24609;48.316;16.174;2023-08-21T03:19:53;18.30;99.90
38860;DHT22;24609;48.316;16.174;2023-08-21T03:22:18;18.20;99.90
38860;DHT22;24609;48.316;16.174;2023-08-21T03:24:44;18.20;99.90
38860;DHT22;24609;48.316;16.174;2023-08-21T03:27:10;18.20;99.90
38860;DHT22;24609;48.316;16.174;2023-08-21T03:29:35;18.10;99.90
38860;DHT22;24609;48.316;16.174;2023-08-21T03:32:01;18.10;99.90
38860;DHT22;24609;48.316;16.174;2023-08-21T03:34:27;18.10;99.90
38860;DHT22;24609;48.316;16.174;2023-08-21T03:36:52;18.10;99.90
38860;DHT22;24609;48.316;16.174;2023-08-21T03:39:18;18.00;99.90
38860;DHT22;24609;48.316;16.174;2023-08-21T03:41:44;18.00;99.90
38860;DHT22;24609;48.316;16.174;2023-08-21T03:44:09;17.80;99.90
38860;DHT22;24609;48.316;16.174;2023-08-21T03:46:35;17.70;99.90
38860;DHT22;24609;48.316;16.174;2023-08-21T03:49:00;17.70;99.90
38860;DHT22;24609;48.316;16.174;2023-08-21T03:51:26;17.70;99.90
38860;DHT22;24609;48.316;16.174;2023-08-21T03:53:52;17.70;99.90
38860;DHT22;24609;48.316;16.174;2023-08-21T03:56:17;17.90;99.90
38860;DHT22;24609;48.316;16.174;2023-08-21T03:58:44;17.90;99.90
38860;DHT22;24609;48.316;16.174;2023-08-21T04:01:10;17.90;99.90
38860;DHT22;24609;48.316;16.174;2023-08-21T04:03:35;18.00;99.90
38860;DHT22;24609;48.316;16.174;2023-08-21T04:06:02;18.00;99.90
38860;DHT22;24609;48.316;16.174;2023-08-21T04:08:27;18.00;99.90
38860;DHT22;24609;48.316;16.174;2023-08-21T04:10:53;18.00;99.90
38860;DHT22;24609;48.316;16.174;2023-08-21T04:13:19;17.90;99.90
38860;DHT22;24609;48.316;16.174;2023-08-21T04:15:45;17.90;99.90
38860;DHT22;24609;48.316;16.174;2023-08-21T04:18:11;17.90;99.90
38860;DHT22;24609;48.316;16.174;2023-08-21T04:20:37;18.00;99.90
38860;DHT22;24609;48.316;16.174;2023-08-21T04:23:03;18.00;99.90
38860;DHT22;24609;48.316;16.174;2023-08-21T04:25:28;18.00;99.90
38860;DHT22;24609;48.316;16.174;2023-08-21T04:27:54;18.00;99.90
38860;DHT22;24609;48.316;16.174;2023-08-21T04:30:20;18.00;99.90
38860;DHT22;24609;48.316;16.174;2023-08-21T04:32:47;18.00;99.90
38860;DHT22;24609;48.316;16.174;2023-08-21T04:35:13;18.10;99.90
38860;DHT22;24609;48.316;16.174;2023-08-21T04:37:43;18.10;99.90
38860;DHT22;24609;48.316;16.174;2023-08-21T04:40:10;18.10;99.90
38860;DHT22;24609;48.316;16.174;2023-08-21T04:42:36;18.10;99.90
38860;DHT22;24609;48.316;16.174;2023-08-21T04:45:02;18.00;99.90
38860;DHT22;24609;48.316;16.174;2023-08-21T04:47:28;17.90;99.90
38860;DHT22;24609;48.316;16.174;2023-08-21T04:49:54;18.00;99.90
38860;DHT22;24609;48.316;16.174;2023-08-21T04:52:21;18.00;99.90
38860;DHT22;24609;48.316;16.174;2023-08-21T04:54:48;18.10;99.90
38860;DHT22;24609;48.316;16.174;2023-08-21T04:57:14;18.20;99.90
38860;DHT22;24609;48.316;16.174;2023-08-21T04:59:40;18.30;99.90
38860;DHT22;24609;48.316;16.174;2023-08-21T05:02:06;18.40;99.90
38860;DHT22;24609;48.316;16.174;2023-08-21T05:04:32;18.50;99.90
38860;DHT22;24609;48.316;16.174;2023-08-21T05:06:58;18.60;99.90
38860;DHT22;24609;48.316;16.174;2023-08-21T05:09:24;18.70;99.90
38860;DHT22;24609;48.316;16.174;2023-08-21T05:11:49;18.70;99.90
38860;DHT22;24609;48.316;16.174;2023-08-21T05:14:15;18.70;99.90
38860;DHT22;24609;48.316;16.174;2023-08-21T05:16:41;18.80;99.90
38860;DHT22;24609;48.316;16.174;2023-08-21T05:19:06;18.90;99.90
38860;DHT22;24609;48.316;16.174;2023-08-21T05:21:33;19.10;99.90
38860;DHT22;24609;48.316;16.174;2023-08-21T05:23:58;19.10;99.90
38860;DHT22;24609;48.316;16.174;2023-08-21T05:26:24;19.10;99.90
38860;DHT22;24609;48.316;16.174;2023-08-21T05:28:49;19.10;99.90
38860;DHT22;24609;48.316;16.174;2023-08-21T05:31:15;19.10;99.90
38860;DHT22;24609;48.316;16.174;2023-08-21T05:33:41;19.10;99.90
38860;DHT22;24609;48.316;16.174;2023-08-21T05:36:06;19.20;99.90
38860;DHT22;24609;48.316;16.174;2023-08-21T05:38:32;19.30;99.90
38860;DHT22;24609;48.316;16.174;2023-08-21T05:40:58;19.40;99.90
38860;DHT22;24609;48.316;16.174;2023-08-21T05:43:24;19.60;99.90
38860;DHT22;24609;48.316;16.174;2023-08-21T05:45:50;19.70;99.90
38860;DHT22;24609;48.316;16.174;2023-08-21T05:48:16;19.80;99.90
38860;DHT22;24609;48.316;16.174;2023-08-21T05:50:44;20.00;99.90
38860;DHT22;24609;48.316;16.174;2023-08-21T05:53:10;20.10;99.90
38860;DHT22;24609;48.316;16.174;2023-08-21T05:55:40;20.10;99.90
38860;DHT22;24609;48.316;16.174;2023-08-21T05:58:05;20.00;99.90
38860;DHT22;24609;48.316;16.174;2023-08-21T06:00:33;19.90;99.90
38860;DHT22;24609;48.316;16.174;2023-08-21T06:02:59;19.90;99.90
38860;DHT22;24609;48.316;16.174;2023-08-21T06:05:24;20.00;99.90
38860;DHT22;24609;48.316;16.174;2023-08-21T06:07:50;20.10;99.90
38860;DHT22;24609;48.316;16.174;2023-08-21T06:10:17;20.20;99.90
38860;DHT22;24609;48.316;16.174;2023-08-21T06:12:42;20.50;99.90
38860;DHT22;24609;48.316;16.174;2023-08-21T06:15:08;20.90;99.90
38860;DHT22;24609;48.316;16.174;2023-08-21T06:17:35;21.50;99.90
38860;DHT22;24609;48.316;16.174;2023-08-21T06:20:01;21.90;99.90
38860;DHT22;24609;48.316;16.174;2023-08-21T06:22:28;22.40;99.90
38860;DHT22;24609;48.316;16.174;2023-08-21T06:24:54;22.80;97.80
38860;DHT22;24609;48.316;16.174;2023-08-21T06:27:19;22.80;76.90
38860;DHT22;24609;48.316;16.174;2023-08-21T06:29:45;23.60;1.00
38860;DHT22;24609;48.316;16.174;2023-08-21T06:32:11;24.50;99.90
38860;DHT22;24609;48.316;16.174;2023-08-21T06:34:37;25.40;99.90
38860;DHT22;24609;48.316;16.174;2023-08-21T06:37:02;26.20;99.90
38860;DHT22;24609;48.316;16.174;2023-08-21T06:39:28;27.30;99.90
38860;DHT22;24609;48.316;16.174;2023-08-21T06:41:54;26.20;57.20
38860;DHT22;24609;48.316;16.174;2023-08-21T06:44:20;25.70;99.90
38860;DHT22;24609;48.316;16.174;2023-08-21T06:46:46;25.70;99.90
38860;DHT22;24609;48.316;16.174;2023-08-21T06:49:11;26.50;1.00
38860;DHT22;24609;48.316;16.174;2023-08-21T06:51:37;27.40;99.90
38860;DHT22;24609;48.316;16.174;2023-08-21T06:54:03;29.10;29.40
38860;DHT22;24609;48.316;16.174;2023-08-21T06:56:28;28.40;99.90
38860;DHT22;24609;48.316;16.174;2023-08-21T06:58:54;28.00;99.90
38860;DHT22;24609;48.316;16.174;2023-08-21T07:01:21;27.20;99.90
38860;DHT22;24609;48.316;16.174;2023-08-21T07:03:46;26.80;99.90
38860;DHT22;24609;48.316;16.174;2023-08-21T07:06:12;26.70;99.90
38860;DHT22;24609;48.316;16.174;2023-08-21T07:08:38;26.50;99.90
38860;DHT22;24609;48.316;16.174;2023-08-21T07:11:06;26.60;99.90
38860;DHT22;24609;48.316;16.174;2023-08-21T07:13:36;26.50;99.90
38860;DHT22;24609;48.316;16.174;2023-08-21T07:16:01;27.60;99.90
38860;DHT22;24609;48.316;16.174;2023-08-21T07:18:32;28.80;99.90
38860;DHT22;24609;48.316;16.174;2023-08-21T07:20:57;29.30;99.90
38860;DHT22;24609;48.316;16.174;2023-08-21T07:23:23;28.70;99.90
38860;DHT22;24609;48.316;16.174;2023-08-21T07:25:49;27.70;99.90
38860;DHT22;24609;48.316;16.174;2023-08-21T07:28:15;26.90;99.90
38860;DHT22;24609;48.316;16.174;2023-08-21T07:30:40;27.10;99.90
38860;DHT22;24609;48.316;16.174;2023-08-21T07:33:06;28.30;99.90
38860;DHT22;24609;48.316;16.174;2023-08-21T07:35:33;28.80;99.90
38860;DHT22;24609;48.316;16.174;2023-08-21T07:37:58;30.00;99.90
38860;DHT22;24609;48.316;16.174;2023-08-21T07:40:24;30.40;97.10
38860;DHT22;24609;48.316;16.174;2023-08-21T07:42:50;30.40;96.20
38860;DHT22;24609;48.316;16.174;2023-08-21T07:45:16;30.20;96.50
38860;DHT22;24609;48.316;16.174;2023-08-21T07:47:42;30.70;95.80
38860;DHT22;24609;48.316;16.174;2023-08-21T07:50:08;30.90;96.50
38860;DHT22;24609;48.316;16.174;2023-08-21T07:52:34;31.30;94.30
38860;DHT22;24609;48.316;16.174;2023-08-21T07:55:00;29.60;94.20
38860;DHT22;24609;48.316;16.174;2023-08-21T07:57:30;29.30;95.70
38860;DHT22;24609;48.316;16.174;2023-08-21T07:59:56;29.90;96.10
38860;DHT22;24609;48.316;16.174;2023-08-21T08:02:22;30.40;94.50
38860;DHT22;24609;48.316;16.174;2023-08-21T08:04:48;31.50;93.10
38860;DHT22;24609;48.316;16.174;2023-08-21T08:07:14;32.10;91.70
38860;DHT22;24609;48.316;16.174;2023-08-21T08:09:39;32.00;90.80
38860;DHT22;24609;48.316;16.174;2023-08-21T08:12:05;33.80;87.00
38860;DHT22;24609;48.316;16.174;2023-08-21T08:14:31;34.50;76.10
38860;DHT22;24609;48.316;16.174;2023-08-21T08:16:57;34.00;70.60
38860;DHT22;24609;48.316;16.174;2023-08-21T08:19:23;35.00;72.70
38860;DHT22;24609;48.316;16.174;2023-08-21T08:21:48;36.00;61.00
38860;DHT22;24609;48.316;16.174;2023-08-21T08:24:14;33.70;63.30
38860;DHT22;24609;48.316;16.174;2023-08-21T08:26:40;33.60;66.90
38860;DHT22;24609;48.316;16.174;2023-08-21T08:29:07;34.60;64.90
38860;DHT22;24609;48.316;16.174;2023-08-21T08:31:33;36.70;63.00
38860;DHT22;24609;48.316;16.174;2023-08-21T08:33:59;39.20;54.80
38860;DHT22;24609;48.316;16.174;2023-08-21T08:36:25;38.70;46.90
38860;DHT22;24609;48.316;16.174;2023-08-21T08:38:50;35.30;53.00
38860;DHT22;24609;48.316;16.174;2023-08-21T08:41:41;36.20;55.00
38860;DHT22;24609;48.316;16.174;2023-08-21T08:44:09;37.20;51.60
38860;DHT22;24609;48.316;16.174;2023-08-21T08:46:35;37.70;51.40
38860;DHT22;24609;48.316;16.174;2023-08-21T08:49:03;38.50;47.60
38860;DHT22;24609;48.316;16.174;2023-08-21T08:51:30;37.30;47.30
38860;DHT22;24609;48.316;16.174;2023-08-21T08:53:58;37.40;46.90
38860;DHT22;24609;48.316;16.174;2023-08-21T08:56:24;38.70;48.40
38860;DHT22;24609;48.316;16.174;2023-08-21T08:58:50;41.20;43.90
38860;DHT22;24609;48.316;16.174;2023-08-21T09:01:16;39.40;39.20
38860;DHT22;24609;48.316;16.174;2023-08-21T09:03:42;37.80;40.90
38860;DHT22;24609;48.316;16.174;2023-08-21T09:06:08;38.30;46.30
38860;DHT22;24609;48.316;16.174;2023-08-21T09:08:33;40.30;41.90
38860;DHT22;24609;48.316;16.174;2023-08-21T09:11:02;41.50;37.10
38860;DHT22;24609;48.316;16.174;2023-08-21T09:13:32;42.70;34.80
38860;DHT22;24609;48.316;16.174;2023-08-21T09:15:58;42.10;34.40
38860;DHT22;24609;48.316;16.174;2023-08-21T09:18:24;42.50;32.10
38860;DHT22;24609;48.316;16.174;2023-08-21T09:20:50;44.00;31.00
38860;DHT22;24609;48.316;16.174;2023-08-21T09:23:17;41.80;29.20
38860;DHT22;24609;48.316;16.174;2023-08-21T09:25:45;39.70;32.50
38860;DHT22;24609;48.316;16.174;2023-08-21T09:28:13;39.90;33.60
38860;DHT22;24609;48.316;16.174;2023-08-21T09:30:53;40.50;32.00
38860;DHT22;24609;48.316;16.174;2023-08-21T09:33:23;42.50;31.10
38860;DHT22;24609;48.316;16.174;2023-08-21T09:35:52;41.00;30.30
38860;DHT22;24609;48.316;16.174;2023-08-21T09:38:18;40.20;32.50
38860;DHT22;24609;48.316;16.174;2023-08-21T09:40:51;40.10;33.20
38860;DHT22;24609;48.316;16.174;2023-08-21T09:43:18;41.10;30.50
38860;DHT22;24609;48.316;16.174;2023-08-21T09:45:48;42.30;30.90
38860;DHT22;24609;48.316;16.174;2023-08-21T09:48:14;43.20;31.20
38860;DHT22;24609;48.316;16.174;2023-08-21T09:50:40;45.10;28.30
38860;DHT22;24609;48.316;16.174;2023-08-21T09:53:09;45.80;26.80
38860;DHT22;24609;48.316;16.174;2023-08-21T09:55:35;46.70;25.00
38860;DHT22;24609;48.316;16.174;2023-08-21T09:58:02;44.50;24.90
38860;DHT22;24609;48.316;16.174;2023-08-21T10:00:36;45.20;25.70
38860;DHT22;24609;48.316;16.174;2023-08-21T10:03:04;45.30;25.80
38860;DHT22;24609;48.316;16.174;2023-08-21T10:05:34;46.60;23.20
38860;DHT22;24609;48.316;16.174;2023-08-21T10:08:02;47.20;21.40
38860;DHT22;24609;48.316;16.174;2023-08-21T10:10:35;46.20;21.00
38860;DHT22;24609;48.316;16.174;2023-08-21T10:13:03;45.60;23.20
38860;DHT22;24609;48.316;16.174;2023-08-21T10:15:30;46.90;22.60
38860;DHT22;24609;48.316;16.174;2023-08-21T10:17:56;48.20;21.00
38860;DHT22;24609;48.316;16.174;2023-08-21T10:20:24;46.90;20.90
38860;DHT22;24609;48.316;16.174;2023-08-21T10:22:53;48.30;22.00
38860;DHT22;24609;48.316;16.174;2023-08-21T10:25:22;45.20;20.10
38860;DHT22;24609;48.316;16.174;2023-08-21T10:27:53;47.10;20.10
38860;DHT22;24609;48.316;16.174;2023-08-21T10:30:24;48.10;17.20
38860;DHT22;24609;48.316;16.174;2023-08-21T10:32:56;48.90;14.60
38860;DHT22;24609;48.316;16.174;2023-08-21T10:35:28;46.00;16.10
38860;DHT22;24609;48.316;16.174;2023-08-21T10:38:10;44.60;17.70
38860;DHT22;24609;48.316;16.174;2023-08-21T10:40:39;46.70;17.10
38860;DHT22;24609;48.316;16.174;2023-08-21T10:46:02;49.70;11.80
38860;DHT22;24609;48.316;16.174;2023-08-21T10:48:28;48.40;11.40
38860;DHT22;24609;48.316;16.174;2023-08-21T10:50:55;46.80;12.20
38860;DHT22;24609;48.316;16.174;2023-08-21T10:53:22;46.50;15.00
38860;DHT22;24609;48.316;16.174;2023-08-21T10:55:55;46.60;12.30
38860;DHT22;24609;48.316;16.174;2023-08-21T10:58:21;48.10;12.80
38860;DHT22;24609;48.316;16.174;2023-08-21T11:00:55;49.20;10.50
38860;DHT22;24609;48.316;16.174;2023-08-21T11:03:21;49.60;11.20
38860;DHT22;24609;48.316;16.174;2023-08-21T11:06:03;49.00;9.50
38860;DHT22;24609;48.316;16.174;2023-08-21T11:08:29;47.50;13.30
38860;DHT22;24609;48.316;16.174;2023-08-21T11:10:55;48.90;11.50
38860;DHT22;24609;48.316;16.174;2023-08-21T11:13:24;49.30;12.60
38860;DHT22;24609;48.316;16.174;2023-08-21T11:15:57;49.90;10.40
38860;DHT22;24609;48.316;16.174;2023-08-21T11:18:30;49.70;10.80
38860;DHT22;24609;48.316;16.174;2023-08-21T11:21:11;47.90;12.40
38860;DHT22;24609;48.316;16.174;2023-08-21T11:23:39;47.40;12.70
38860;DHT22;24609;48.316;16.174;2023-08-21T11:26:06;46.90;12.60
38860;DHT22;24609;48.316;16.174;2023-08-21T11:28:32;47.50;13.10
38860;DHT22;24609;48.316;16.174;2023-08-21T11:30:59;50.20;11.30
38860;DHT22;24609;48.316;16.174;2023-08-21T11:33:26;49.80;9.50
38860;DHT22;24609;48.316;16.174;2023-08-21T11:35:52;49.00;9.40
38860;DHT22;24609;48.316;16.174;2023-08-21T11:38:20;48.90;10.30
38860;DHT22;24609;48.316;16.174;2023-08-21T11:40:57;50.10;10.10
38860;DHT22;24609;48.316;16.174;2023-08-21T11:43:43;49.50;9.70
38860;DHT22;24609;48.316;16.174;2023-08-21T11:46:10;49.10;8.90
38860;DHT22;24609;48.316;16.174;2023-08-21T11:48:40;49.10;10.40
38860;DHT22;24609;48.316;16.174;2023-08-21T11:51:07;50.30;9.30
38860;DHT22;24609;48.316;16.174;2023-08-21T11:53:39;49.40;9.20
38860;DHT22;24609;48.316;16.174;2023-08-21T11:56:14;51.90;9.50
38860;DHT22;24609;48.316;16.174;2023-08-21T11:58:40;51.50;7.20
38860;DHT22;24609;48.316;16.174;2023-08-21T12:01:06;52.10;9.10
38860;DHT22;24609;48.316;16.174;2023-08-21T12:03:36;52.60;7.40
38860;DHT22;24609;48.316;16.174;2023-08-21T12:06:07;49.40;7.70
38860;DHT22;24609;48.316;16.174;2023-08-21T12:08:34;48.80;9.60
38860;DHT22;24609;48.316;16.174;2023-08-21T12:10:59;49.60;8.70
38860;DHT22;24609;48.316;16.174;2023-08-21T12:13:25;49.60;9.60
38860;DHT22;24609;48.316;16.174;2023-08-21T12:15:51;50.80;9.20
38860;DHT22;24609;48.316;16.174;2023-08-21T12:18:16;49.10;7.70
38860;DHT22;24609;48.316;16.174;2023-08-21T12:20:42;48.60;8.90
38860;DHT22;24609;48.316;16.174;2023-08-21T12:23:08;49.00;9.30
38860;DHT22;24609;48.316;16.174;2023-08-21T12:25:33;51.00;9.30
38860;DHT22;24609;48.316;16.174;2023-08-21T12:27:59;52.00;6.70
38860;DHT22;24609;48.316;16.174;2023-08-21T12:30:25;51.30;8.00
38860;DHT22;24609;48.316;16.174;2023-08-21T12:32:51;51.30;6.60
38860;DHT22;24609;48.316;16.174;2023-08-21T12:35:16;51.70;7.10
38860;DHT22;24609;48.316;16.174;2023-08-21T12:37:42;52.00;5.90
38860;DHT22;24609;48.316;16.174;2023-08-21T12:40:08;50.40;5.70
38860;DHT22;24609;48.316;16.174;2023-08-21T12:42:34;49.80;6.50
38860;DHT22;24609;48.316;16.174;2023-08-21T12:45:00;51.20;7.20
38860;DHT22;24609;48.316;16.174;2023-08-21T12:47:26;52.40;6.00
38860;DHT22;24609;48.316;16.174;2023-08-21T12:49:51;51.40;5.80
38860;DHT22;24609;48.316;16.174;2023-08-21T12:52:17;52.60;5.00
38860;DHT22;24609;48.316;16.174;2023-08-21T12:54:43;53.00;4.60
38860;DHT22;24609;48.316;16.174;2023-08-21T12:57:09;53.00;4.40
38860;DHT22;24609;48.316;16.174;2023-08-21T12:59:36;53.10;4.40
38860;DHT22;24609;48.316;16.174;2023-08-21T13:02:02;52.20;4.50
38860;DHT22;24609;48.316;16.174;2023-08-21T13:04:29;49.70;5.60
38860;DHT22;24609;48.316;16.174;2023-08-21T13:06:55;51.50;5.50
38860;DHT22;24609;48.316;16.174;2023-08-21T13:09:21;50.90;5.00
38860;DHT22;24609;48.316;16.174;2023-08-21T13:11:47;49.80;6.10
38860;DHT22;24609;48.316;16.174;2023-08-21T13:14:12;49.80;5.90
38860;DHT22;24609;48.316;16.174;2023-08-21T13:16:38;51.00;6.10
38860;DHT22;24609;48.316;16.174;2023-08-21T13:19:03;50.70;5.10
38860;DHT22;24609;48.316;16.174;2023-08-21T13:21:29;50.60;4.60
38860;DHT22;24609;48.316;16.174;2023-08-21T13:23:55;51.20;3.40
38860;DHT22;24609;48.316;16.174;2023-08-21T13:26:21;51.50;2.20
38860;DHT22;24609;48.316;16.174;2023-08-21T13:28:46;51.80;2.10
38860;DHT22;24609;48.316;16.174;2023-08-21T13:31:12;51.60;2.70
38860;DHT22;24609;48.316;16.174;2023-08-21T13:33:47;51.40;2.70
38860;DHT22;24609;48.316;16.174;2023-08-21T13:36:15;51.10;2.60
38860;DHT22;24609;48.316;16.174;2023-08-21T13:38:40;50.20;3.60
38860;DHT22;24609;48.316;16.174;2023-08-21T13:41:07;51.40;4.20
38860;DHT22;24609;48.316;16.174;2023-08-21T13:43:34;51.60;3.70
38860;DHT22;24609;48.316;16.174;2023-08-21T13:46:03;53.00;2.90
38860;DHT22;24609;48.316;16.174;2023-08-21T13:48:32;54.10;1.70
38860;DHT22;24609;48.316;16.174;2023-08-21T13:50:58;54.80;2.00
38860;DHT22;24609;48.316;16.174;2023-08-21T13:53:23;54.40;1.00
38860;DHT22;24609;48.316;16.174;2023-08-21T13:55:52;52.40;1.00
38860;DHT22;24609;48.316;16.174;2023-08-21T13:58:18;53.70;1.50
38860;DHT22;24609;48.316;16.174;2023-08-21T14:00:44;53.10;1.00
38860;DHT22;24609;48.316;16.174;2023-08-21T14:03:10;53.10;2.30
38860;DHT22;24609;48.316;16.174;2023-08-21T14:05:36;52.60;1.00
38860;DHT22;24609;48.316;16.174;2023-08-21T14:08:01;51.00;1.00
38860;DHT22;24609;48.316;16.174;2023-08-21T14:10:27;50.50;1.30
38860;DHT22;24609;48.316;16.174;2023-08-21T14:12:53;52.20;1.10
38860;DHT22;24609;48.316;16.174;2023-08-21T14:15:19;53.60;1.70
38860;DHT22;24609;48.316;16.174;2023-08-21T14:17:45;53.80;1.00
38860;DHT22;24609;48.316;16.174;2023-08-21T14:20:11;53.70;1.00
38860;DHT22;24609;48.316;16.174;2023-08-21T14:22:37;53.80;1.00
38860;DHT22;24609;48.316;16.174;2023-08-21T14:25:03;52.30;1.00
38860;DHT22;24609;48.316;16.174;2023-08-21T14:27:32;51.50;2.60
38860;DHT22;24609;48.316;16.174;2023-08-21T14:29:59;52.50;1.00
38860;DHT22;24609;48.316;16.174;2023-08-21T14:32:25;52.50;1.00
38860;DHT22;24609;48.316;16.174;2023-08-21T14:34:50;52.00;1.50
38860;DHT22;24609;48.316;16.174;2023-08-21T14:37:18;52.80;1.00
38860;DHT22;24609;48.316;16.174;2023-08-21T14:39:44;50.20;1.00
38860;DHT22;24609;48.316;16.174;2023-08-21T14:42:10;47.70;1.70
38860;DHT22;24609;48.316;16.174;2023-08-21T14:44:36;49.00;2.20
38860;DHT22;24609;48.316;16.174;2023-08-21T14:47:01;49.60;1.90
38860;DHT22;24609;48.316;16.174;2023-08-21T14:49:27;49.00;2.10
38860;DHT22;24609;48.316;16.174;2023-08-21T14:51:54;50.40;1.50
38860;DHT22;24609;48.316;16.174;2023-08-21T14:54:19;51.40;1.70
38860;DHT22;24609;48.316;16.174;2023-08-21T14:56:45;50.80;1.00
38860;DHT22;24609;48.316;16.174;2023-08-21T14:59:12;50.30;1.20
38860;DHT22;24609;48.316;16.174;2023-08-21T15:01:38;48.80;1.50
38860;DHT22;24609;48.316;16.174;2023-08-21T15:04:05;47.60;2.20
38860;DHT22;24609;48.316;16.174;2023-08-21T15:06:30;45.60;3.30
38860;DHT22;24609;48.316;16.174;2023-08-21T15:08:56;43.60;5.80
38860;DHT22;24609;48.316;16.174;2023-08-21T15:11:22;41.10;9.40
38860;DHT22;24609;48.316;16.174;2023-08-21T15:13:47;39.30;9.60
38860;DHT22;24609;48.316;16.174;2023-08-21T15:16:13;37.90;11.50
38860;DHT22;24609;48.316;16.174;2023-08-21T15:18:39;36.90;12.20
38860;DHT22;24609;48.316;16.174;2023-08-21T15:21:04;36.10;13.00
38860;DHT22;24609;48.316;16.174;2023-08-21T15:23:30;35.80;13.90
38860;DHT22;24609;48.316;16.174;2023-08-21T15:25:56;35.70;14.50